createdAt,value
2022-09-17T00:00:26.868Z,9.26
2022-09-17T00:02:55.676Z,9.18
2022-09-17T00:05:24.431Z,9.09
2022-09-17T00:07:53.305Z,9.02
2022-09-17T00:10:23.095Z,8.97
2022-09-17T00:12:51.355Z,8.92
2022-09-17T00:15:18.976Z,8.89
2022-09-17T00:17:46.512Z,8.84
2022-09-17T00:20:14.010Z,8.78
2022-09-17T00:22:41.511Z,8.78
2022-09-17T00:25:10.435Z,8.86
2022-09-17T00:27:37.948Z,8.87
2022-09-17T00:30:06.582Z,8.78
2022-09-17T00:32:34.076Z,8.75
2022-09-17T00:35:01.575Z,8.78
2022-09-17T00:37:29.075Z,8.76
2022-09-17T00:39:56.700Z,8.73
2022-09-17T00:42:25.647Z,8.71
2022-09-17T00:44:54.587Z,8.78
2022-09-17T00:47:26.324Z,8.72
2022-09-17T00:49:57.724Z,8.76
2022-09-17T00:52:28.316Z,8.70
2022-09-17T00:55:01.354Z,8.73
2022-09-17T00:57:31.724Z,8.67
2022-09-17T00:59:59.468Z,8.63
2022-09-17T01:02:27.254Z,8.56
2022-09-17T01:04:55.930Z,8.57
2022-09-17T01:07:44.151Z,8.45
2022-09-17T01:10:20.299Z,8.59
2022-09-17T01:13:03.060Z,8.72
2022-09-17T01:15:35.268Z,8.80
2022-09-17T01:18:22.495Z,8.78
2022-09-17T01:21:14.447Z,8.71
2022-09-17T01:23:55.029Z,8.58
2022-09-17T01:26:39.939Z,8.54
2022-09-17T01:29:14.880Z,8.54
2022-09-17T01:31:46.952Z,8.66
2022-09-17T01:34:20.906Z,8.62
2022-09-17T01:37:00.335Z,8.55
2022-09-17T01:39:34.249Z,8.55
2022-09-17T01:42:08.014Z,8.64
2022-09-17T01:44:38.486Z,8.49
2022-09-17T01:47:12.164Z,8.52
2022-09-17T01:49:40.119Z,8.43
2022-09-17T01:52:08.562Z,8.38
2022-09-17T01:54:41.909Z,8.35
2022-09-17T01:57:13.474Z,8.42
2022-09-17T01:59:43.786Z,8.41
2022-09-17T02:02:16.193Z,8.33
2022-09-17T02:04:47.383Z,8.40
2022-09-17T02:07:20.042Z,8.47
2022-09-17T02:09:51.802Z,8.50
2022-09-17T02:12:22.181Z,8.48
2022-09-17T02:14:51.590Z,8.52
2022-09-17T02:17:25.149Z,8.48
2022-09-17T02:19:53.604Z,8.42
2022-09-17T02:22:24.631Z,8.41
2022-09-17T02:25:01.989Z,8.55
2022-09-17T02:27:37.746Z,8.60
2022-09-17T02:30:06.420Z,8.53
2022-09-17T02:32:35.419Z,8.53
2022-09-17T02:35:02.998Z,8.50
2022-09-17T02:37:30.512Z,8.47
2022-09-17T02:39:58.107Z,8.50
2022-09-17T02:42:33.267Z,8.46
2022-09-17T02:45:05.886Z,8.51
2022-09-17T02:47:54.736Z,8.49
2022-09-17T02:50:30.494Z,8.48
2022-09-17T02:53:08.666Z,8.49
2022-09-17T02:55:41.519Z,8.44
2022-09-17T02:58:18.679Z,8.27
2022-09-17T03:00:46.850Z,8.36
2022-09-17T03:03:18.668Z,8.26
2022-09-17T03:05:46.986Z,8.22
2022-09-17T03:08:15.463Z,8.25
2022-09-17T03:10:43.140Z,8.24
2022-09-17T03:13:10.631Z,8.19
2022-09-17T03:15:38.155Z,8.27
2022-09-17T03:18:05.747Z,8.38
2022-09-17T03:20:34.583Z,8.52
2022-09-17T03:23:02.091Z,8.52
2022-09-17T03:25:29.570Z,8.51
2022-09-17T03:27:57.040Z,8.45
2022-09-17T03:30:24.543Z,8.50
2022-09-17T03:32:52.055Z,8.52
2022-09-17T03:35:19.689Z,8.62
2022-09-17T03:37:48.658Z,8.60
2022-09-17T03:40:16.336Z,8.57
2022-09-17T03:42:43.864Z,8.53
2022-09-17T03:45:11.786Z,8.52
2022-09-17T03:47:39.283Z,8.46
2022-09-17T03:50:08.363Z,8.43
2022-09-17T03:52:36.229Z,8.43
2022-09-17T03:55:05.820Z,8.35
2022-09-17T03:57:33.307Z,8.31
2022-09-17T04:00:00.789Z,8.30
2022-09-17T04:02:28.535Z,8.31
2022-09-17T04:04:56.522Z,8.36
2022-09-17T04:07:24.040Z,8.34
2022-09-17T04:09:51.534Z,8.35
2022-09-17T04:12:21.039Z,8.24
2022-09-17T04:14:48.553Z,8.22
2022-09-17T04:17:18.092Z,8.17
2022-09-17T04:19:45.680Z,8.21
2022-09-17T04:22:13.344Z,8.10
2022-09-17T04:24:40.828Z,8.09
2022-09-17T04:27:08.338Z,8.06
2022-09-17T04:29:37.200Z,8.03
2022-09-17T04:32:04.827Z,8.01
2022-09-17T04:34:33.051Z,8.05
2022-09-17T04:37:00.542Z,8.12
2022-09-17T04:39:28.055Z,8.12
2022-09-17T04:41:56.039Z,8.12
2022-09-17T04:44:23.563Z,8.11
2022-09-17T04:46:52.490Z,7.97
2022-09-17T04:49:20.027Z,7.89
2022-09-17T04:51:47.527Z,7.89
2022-09-17T04:54:15.136Z,7.86
2022-09-17T04:56:42.632Z,7.76
2022-09-17T04:59:10.199Z,7.73
2022-09-17T05:01:37.760Z,7.68
2022-09-17T05:04:06.656Z,7.67
2022-09-17T05:06:34.194Z,7.69
2022-09-17T05:09:02.031Z,7.68
2022-09-17T05:11:29.909Z,7.70
2022-09-17T05:13:57.436Z,7.75
2022-09-17T05:16:25.064Z,7.75
2022-09-17T05:18:52.699Z,7.68
2022-09-17T05:21:21.588Z,7.64
2022-09-17T05:23:49.067Z,7.61
2022-09-17T05:26:16.724Z,7.67
2022-09-17T05:28:44.268Z,7.75
2022-09-17T05:31:11.898Z,7.78
2022-09-17T05:33:39.499Z,7.88
2022-09-17T05:36:08.054Z,7.98
2022-09-17T05:38:36.879Z,8.16
2022-09-17T05:41:06.093Z,8.40
2022-09-17T05:43:34.042Z,8.53
2022-09-17T05:46:05.752Z,8.52
2022-09-17T05:48:33.348Z,8.45
2022-09-17T05:51:00.913Z,8.40
2022-09-17T05:53:28.647Z,8.36
2022-09-17T05:55:58.808Z,8.33
2022-09-17T05:58:27.004Z,8.44
2022-09-17T06:00:54.555Z,8.49
2022-09-17T06:03:23.491Z,8.48
2022-09-17T06:05:55.408Z,8.47
2022-09-17T06:08:23.008Z,8.44
2022-09-17T06:10:50.647Z,8.37
2022-09-17T06:13:20.062Z,8.36
2022-09-17T06:15:51.237Z,8.53
2022-09-17T06:18:18.954Z,8.67
2022-09-17T06:20:53.766Z,8.90
2022-09-17T06:23:21.320Z,9.09
2022-09-17T06:25:52.564Z,9.11
2022-09-17T06:28:21.405Z,9.01
2022-09-17T06:30:49.348Z,9.06
2022-09-17T06:33:16.831Z,8.81
2022-09-17T06:35:44.340Z,8.89
2022-09-17T06:38:11.831Z,8.96
2022-09-17T06:40:39.421Z,8.97
2022-09-17T06:43:07.339Z,9.02
2022-09-17T06:45:36.199Z,9.00
2022-09-17T06:48:06.158Z,9.10
2022-09-17T06:50:33.671Z,9.14
2022-09-17T06:53:01.179Z,9.24
2022-09-17T06:55:29.031Z,9.32
2022-09-17T06:57:59.884Z,9.48
2022-09-17T07:00:27.993Z,9.53
2022-09-17T07:03:00.647Z,9.51
2022-09-17T07:05:29.355Z,9.54
2022-09-17T07:07:57.063Z,9.63
2022-09-17T07:10:24.774Z,9.73
2022-09-17T07:12:52.400Z,9.90
2022-09-17T07:15:20.359Z,10.18
2022-09-17T07:17:47.892Z,10.27
2022-09-17T07:20:17.064Z,10.20
2022-09-17T07:22:44.930Z,10.29
2022-09-17T07:25:12.923Z,10.38
2022-09-17T07:27:40.442Z,10.48
2022-09-17T07:30:09.075Z,10.44
2022-09-17T07:32:36.588Z,10.83
2022-09-17T07:35:04.264Z,11.32
2022-09-17T07:37:33.123Z,11.20
2022-09-17T07:40:00.763Z,11.15
2022-09-17T07:42:28.379Z,10.95
2022-09-17T07:45:01.210Z,11.21
2022-09-17T07:47:29.526Z,10.82
2022-09-17T07:49:57.014Z,11.19
2022-09-17T07:52:24.684Z,11.13
2022-09-17T07:54:53.523Z,10.99
2022-09-17T07:57:21.004Z,11.39
2022-09-17T07:59:49.491Z,11.58
2022-09-17T08:02:21.876Z,11.62
2022-09-17T08:04:51.402Z,11.63
2022-09-17T08:07:18.991Z,11.51
2022-09-17T08:09:46.491Z,11.42
2022-09-17T08:12:15.347Z,11.86
2022-09-17T08:14:42.871Z,11.64
2022-09-17T08:17:10.443Z,11.78
2022-09-17T08:19:37.943Z,12.13
2022-09-17T08:22:05.563Z,11.89
2022-09-17T08:24:33.067Z,11.90
2022-09-17T08:27:00.559Z,11.97
2022-09-17T08:29:34.478Z,12.29
2022-09-17T08:32:03.075Z,12.36
2022-09-17T08:34:30.570Z,12.70
2022-09-17T08:36:58.072Z,12.80
2022-09-17T08:39:25.619Z,12.50
2022-09-17T08:41:57.084Z,12.41
2022-09-17T08:44:27.720Z,12.69
2022-09-17T08:47:00.292Z,12.22
2022-09-17T08:49:34.194Z,12.02
2022-09-17T08:52:30.745Z,11.97
2022-09-17T08:55:04.185Z,11.92
2022-09-17T08:57:39.150Z,12.24
2022-09-17T09:00:11.510Z,12.29
2022-09-17T09:02:53.329Z,12.68
2022-09-17T09:05:22.786Z,13.12
2022-09-17T09:07:53.358Z,13.40
2022-09-17T09:10:24.569Z,13.19
2022-09-17T09:12:52.713Z,13.13
2022-09-17T09:15:28.203Z,13.19
2022-09-17T09:17:58.480Z,12.79
2022-09-17T09:20:32.097Z,12.74
2022-09-17T09:23:03.907Z,12.93
2022-09-17T09:25:35.392Z,13.23
2022-09-17T09:28:18.114Z,13.30
2022-09-17T09:30:54.504Z,13.59
2022-09-17T09:33:28.103Z,13.47
2022-09-17T09:35:55.631Z,13.53
2022-09-17T09:38:30.731Z,13.78
2022-09-17T09:41:03.672Z,13.21
2022-09-17T09:44:00.009Z,13.22
2022-09-17T09:46:52.340Z,12.28
2022-09-17T09:49:31.042Z,11.90
2022-09-17T09:52:07.284Z,12.13
2022-09-17T09:54:44.784Z,12.53
2022-09-17T09:57:14.832Z,12.48
2022-09-17T09:59:42.346Z,12.44
2022-09-17T10:02:10.319Z,12.20
2022-09-17T10:04:39.390Z,12.48
2022-09-17T10:07:08.413Z,12.49
2022-09-17T10:09:37.575Z,12.79
2022-09-17T10:12:19.254Z,12.62
2022-09-17T10:14:47.475Z,12.68
2022-09-17T10:17:21.500Z,13.39
2022-09-17T10:20:14.316Z,13.25
2022-09-17T10:22:42.451Z,13.36
2022-09-17T10:25:24.052Z,13.45
2022-09-17T10:27:51.594Z,13.14
2022-09-17T10:30:20.407Z,13.54
2022-09-17T10:33:12.904Z,12.51
2022-09-17T10:35:41.799Z,12.79
2022-09-17T10:38:28.147Z,12.72
2022-09-17T10:41:09.682Z,13.08
2022-09-17T10:43:37.580Z,12.96
2022-09-17T10:46:06.234Z,13.35
2022-09-17T10:48:37.813Z,13.28
2022-09-17T10:51:08.760Z,13.73
2022-09-17T10:53:53.672Z,13.90
2022-09-17T10:56:24.247Z,13.63
2022-09-17T10:58:57.948Z,13.01
2022-09-17T11:01:34.238Z,13.20
2022-09-17T11:04:15.103Z,13.20
2022-09-17T11:07:11.230Z,13.31
2022-09-17T11:09:48.098Z,13.59
2022-09-17T11:12:29.978Z,13.09
2022-09-17T11:15:02.926Z,12.81
2022-09-17T11:17:44.712Z,12.95
2022-09-17T11:20:22.866Z,13.04
2022-09-17T11:23:01.492Z,12.91
2022-09-17T11:25:42.127Z,12.34
2022-09-17T11:28:21.203Z,12.38
2022-09-17T11:30:57.685Z,12.06
2022-09-17T11:33:52.311Z,11.95
2022-09-17T11:36:22.402Z,12.41
2022-09-17T11:38:52.139Z,12.38
2022-09-17T11:41:22.506Z,12.71
2022-09-17T11:43:55.321Z,12.59
2022-09-17T11:46:26.240Z,12.98
2022-09-17T11:48:56.672Z,13.11
2022-09-17T11:51:29.072Z,13.36
2022-09-17T11:54:01.938Z,13.67
2022-09-17T11:56:32.286Z,14.09
2022-09-17T11:59:03.810Z,14.83
2022-09-17T12:01:36.917Z,14.57
2022-09-17T12:04:28.705Z,15.63
2022-09-17T12:07:00.084Z,15.63
2022-09-17T12:09:30.882Z,15.98
2022-09-17T12:12:01.787Z,16.22
2022-09-17T12:14:32.194Z,15.74
2022-09-17T12:17:01.269Z,13.31
2022-09-17T12:19:32.419Z,10.78
2022-09-17T12:22:02.946Z,10.59
2022-09-17T12:24:32.505Z,10.51
2022-09-17T12:27:10.024Z,10.73
2022-09-17T12:30:05.235Z,10.87
2022-09-17T12:32:47.964Z,10.60
2022-09-17T12:35:23.634Z,10.61
2022-09-17T12:38:03.299Z,11.04
2022-09-17T12:40:33.617Z,11.32
2022-09-17T12:43:14.298Z,11.47
2022-09-17T12:45:53.364Z,11.93
2022-09-17T12:48:34.151Z,12.69
2022-09-17T12:51:12.094Z,12.75
2022-09-17T12:53:44.227Z,12.75
2022-09-17T12:56:23.307Z,12.94
2022-09-17T12:59:05.997Z,13.33
2022-09-17T13:01:37.224Z,13.46
2022-09-17T13:04:15.868Z,13.75
2022-09-17T13:07:03.565Z,13.23
2022-09-17T13:10:00.796Z,13.12
2022-09-17T13:12:33.044Z,13.08
2022-09-17T13:15:38.784Z,12.92
2022-09-17T13:18:26.199Z,13.50
2022-09-17T13:21:03.769Z,13.96
2022-09-17T13:23:37.071Z,13.98
2022-09-17T13:26:06.711Z,13.82
2022-09-17T13:28:46.932Z,13.62
2022-09-17T13:31:20.739Z,13.82
2022-09-17T13:33:53.398Z,13.76
2022-09-17T13:36:42.124Z,13.90
2022-09-17T13:39:11.002Z,13.68
2022-09-17T13:41:40.968Z,13.62
2022-09-17T13:44:12.423Z,13.53
2022-09-17T13:46:40.393Z,12.81
2022-09-17T13:49:14.725Z,12.35
2022-09-17T13:51:50.959Z,12.01
2022-09-17T13:54:20.443Z,11.84
2022-09-17T13:56:50.363Z,11.78
2022-09-17T13:59:22.768Z,11.94
2022-09-17T14:02:04.720Z,12.34
2022-09-17T14:04:51.043Z,12.73
2022-09-17T14:07:47.170Z,13.15
2022-09-17T14:10:37.464Z,13.25
2022-09-17T14:13:44.278Z,13.31
2022-09-17T14:16:35.444Z,13.42
2022-09-17T14:19:05.536Z,13.46
2022-09-17T14:21:33.944Z,13.59
2022-09-17T14:24:03.203Z,13.63
2022-09-17T14:26:58.047Z,13.55
2022-09-17T14:29:34.936Z,13.88
2022-09-17T14:32:03.882Z,13.76
2022-09-17T14:34:32.668Z,13.75
2022-09-17T14:37:00.345Z,13.88
2022-09-17T14:39:30.581Z,13.92
2022-09-17T14:41:58.082Z,13.85
2022-09-17T14:44:27.237Z,13.92
2022-09-17T14:46:57.549Z,13.90
2022-09-17T14:49:28.023Z,14.09
2022-09-17T14:51:56.395Z,14.13
2022-09-17T14:54:26.125Z,13.46
2022-09-17T14:56:59.453Z,13.20
2022-09-17T14:59:34.198Z,12.98
2022-09-17T15:02:01.787Z,12.77
2022-09-17T15:04:30.650Z,12.80
2022-09-17T15:07:07.851Z,12.80
2022-09-17T15:09:35.403Z,12.85
2022-09-17T15:12:03.720Z,12.72
2022-09-17T15:14:33.965Z,12.66
2022-09-17T15:17:02.803Z,12.49
2022-09-17T15:19:35.779Z,12.50
2022-09-17T15:22:07.902Z,12.63
2022-09-17T15:24:40.844Z,12.65
2022-09-17T15:27:13.319Z,12.74
2022-09-17T15:29:43.759Z,12.96
2022-09-17T15:32:13.724Z,12.67
2022-09-17T15:34:42.639Z,12.58
2022-09-17T15:37:18.448Z,12.80
2022-09-17T15:39:51.031Z,12.74
2022-09-17T15:42:21.227Z,12.36
2022-09-17T15:44:48.829Z,12.20
2022-09-17T15:47:35.531Z,12.24
2022-09-17T15:50:15.692Z,12.25
2022-09-17T15:52:43.498Z,12.31
2022-09-17T15:55:31.201Z,12.63
2022-09-17T15:57:59.291Z,12.50
2022-09-17T16:00:26.987Z,12.53
2022-09-17T16:02:55.482Z,12.50
2022-09-17T16:05:55.624Z,12.54
2022-09-17T16:08:25.052Z,12.60
2022-09-17T16:10:53.013Z,12.48
2022-09-17T16:13:23.150Z,12.36
2022-09-17T16:15:52.825Z,12.33
2022-09-17T16:18:20.464Z,12.18
2022-09-17T16:20:47.988Z,12.27
2022-09-17T16:23:16.827Z,12.25
2022-09-17T16:25:44.344Z,12.17
2022-09-17T16:28:14.453Z,12.27
2022-09-17T16:30:44.951Z,12.22
2022-09-17T16:33:14.266Z,12.18
2022-09-17T16:35:42.503Z,12.18
2022-09-17T16:38:11.443Z,12.13
2022-09-17T16:40:42.961Z,12.09
2022-09-17T16:43:10.860Z,12.01
2022-09-17T16:45:38.403Z,12.05
2022-09-17T16:48:06.654Z,12.00
2022-09-17T16:50:34.700Z,11.89
2022-09-17T16:53:05.389Z,11.73
2022-09-17T16:55:33.335Z,11.74
2022-09-17T16:58:02.970Z,11.73
2022-09-17T17:00:30.504Z,11.60
2022-09-17T17:02:58.601Z,11.48
2022-09-17T17:05:27.365Z,11.39
2022-09-17T17:07:55.884Z,11.33
2022-09-17T17:10:24.286Z,11.27
2022-09-17T17:12:52.412Z,11.22
2022-09-17T17:15:22.400Z,11.16
2022-09-17T17:17:49.917Z,11.04
2022-09-17T17:20:17.861Z,10.98
2022-09-17T17:22:45.943Z,10.84
2022-09-17T17:25:15.018Z,10.72
2022-09-17T17:27:44.349Z,10.61
2022-09-17T17:30:16.726Z,10.62
2022-09-17T17:32:49.779Z,10.54
2022-09-17T17:35:17.355Z,10.52
2022-09-17T17:37:44.879Z,10.49
2022-09-17T17:40:12.654Z,10.46
2022-09-17T17:42:43.743Z,10.49
2022-09-17T17:45:12.235Z,10.64
2022-09-17T17:47:39.756Z,10.77
2022-09-17T17:50:10.519Z,10.66
2022-09-17T17:52:39.001Z,10.68
2022-09-17T17:55:07.340Z,10.60
2022-09-17T17:57:34.833Z,10.51
2022-09-17T18:00:03.103Z,10.39
2022-09-17T18:02:30.748Z,10.33
2022-09-17T18:05:03.415Z,10.26
2022-09-17T18:07:33.546Z,10.16
2022-09-17T18:10:01.052Z,10.15
2022-09-17T18:12:28.568Z,10.11
2022-09-17T18:14:56.097Z,10.16
2022-09-17T18:17:23.600Z,10.20
2022-09-17T18:19:51.320Z,10.27
2022-09-17T18:22:19.238Z,10.28
2022-09-17T18:24:48.089Z,10.29
2022-09-17T18:27:15.667Z,10.31
2022-09-17T18:29:43.196Z,10.29
2022-09-17T18:32:10.724Z,10.32
2022-09-17T18:34:38.217Z,10.30
2022-09-17T18:37:05.735Z,10.34
2022-09-17T18:39:57.452Z,10.22
2022-09-17T18:42:22.116Z,10.18
2022-09-17T18:44:49.617Z,10.12
2022-09-17T18:47:17.599Z,10.08
2022-09-17T18:49:45.100Z,10.01
2022-09-17T18:52:12.609Z,9.91
2022-09-17T18:54:40.114Z,9.85
2022-09-17T18:57:07.624Z,9.75
2022-09-17T18:59:36.451Z,9.73
2022-09-17T19:02:04.098Z,9.69
2022-09-17T19:04:31.767Z,9.68
2022-09-17T19:06:59.273Z,9.73
2022-09-17T19:09:26.764Z,9.76
2022-09-17T19:11:54.326Z,9.78
2022-09-17T19:14:21.928Z,9.85
2022-09-17T19:16:50.790Z,10.00
2022-09-17T19:19:18.311Z,10.10
2022-09-17T19:21:45.831Z,10.01
2022-09-17T19:24:13.331Z,10.11
2022-09-17T19:26:40.839Z,10.02
2022-09-17T19:29:08.979Z,10.02
2022-09-17T19:31:36.535Z,10.10
2022-09-17T19:34:05.489Z,10.03
2022-09-17T19:36:33.967Z,10.16
2022-09-17T19:39:01.487Z,10.20
2022-09-17T19:41:31.311Z,10.06
2022-09-17T19:43:58.898Z,10.30
2022-09-17T19:46:27.310Z,10.28
2022-09-17T19:48:56.996Z,10.21
2022-09-17T19:51:28.135Z,10.14
2022-09-17T19:53:55.654Z,10.01
2022-09-17T19:56:24.851Z,9.91
2022-09-17T19:58:52.891Z,9.88
2022-09-17T20:01:20.690Z,9.91
2022-09-17T20:03:48.635Z,9.94
2022-09-17T20:06:17.843Z,9.74
2022-09-17T20:08:47.498Z,9.74
2022-09-17T20:11:15.685Z,9.71
2022-09-17T20:13:43.292Z,9.87
2022-09-17T20:16:12.732Z,9.72
2022-09-17T20:18:40.265Z,9.71
2022-09-17T20:21:08.998Z,9.64
2022-09-17T20:23:36.516Z,9.61
2022-09-17T20:26:06.251Z,9.51
2022-09-17T20:28:34.122Z,9.41
2022-09-17T20:31:02.616Z,9.27
2022-09-17T20:33:30.396Z,9.14
2022-09-17T20:35:59.316Z,9.10
2022-09-17T20:39:10.032Z,9.08
2022-09-17T20:41:16.292Z,9.10
2022-09-17T20:43:45.602Z,9.12
2022-09-17T20:46:14.382Z,9.15
2022-09-17T20:48:42.124Z,9.21
2022-09-17T20:51:12.139Z,9.24
2022-09-17T20:53:39.849Z,9.28
2022-09-17T20:56:09.126Z,9.29
2022-09-17T20:58:45.260Z,9.25
2022-09-17T21:01:15.336Z,9.17
2022-09-17T21:03:44.228Z,9.16
2022-09-17T21:06:16.759Z,9.16
2022-09-17T21:08:44.566Z,9.10
2022-09-17T21:11:12.240Z,9.08
2022-09-17T21:13:41.606Z,8.99
2022-09-17T21:16:09.840Z,8.96
2022-09-17T21:18:39.728Z,8.92
2022-09-17T21:21:08.828Z,8.88
2022-09-17T21:23:40.687Z,8.95
2022-09-17T21:26:11.365Z,9.00
2022-09-17T21:28:39.280Z,9.05
2022-09-17T21:31:11.081Z,9.07
2022-09-17T21:33:38.650Z,9.08
2022-09-17T21:36:08.115Z,9.08
2022-09-17T21:38:35.685Z,9.13
2022-09-17T21:41:04.755Z,9.11
2022-09-17T21:43:32.737Z,9.05
2022-09-17T21:46:01.490Z,8.95
2022-09-17T21:48:30.696Z,8.86
2022-09-17T21:51:06.374Z,8.85
2022-09-17T21:53:34.012Z,8.82
2022-09-17T21:56:06.253Z,8.84
2022-09-17T21:58:34.179Z,8.83
2022-09-17T22:01:07.019Z,8.94
2022-09-17T22:03:36.027Z,8.97
2022-09-17T22:06:05.687Z,9.02
2022-09-17T22:08:33.946Z,8.97
2022-09-17T22:11:07.147Z,8.97
2022-09-17T22:13:35.127Z,8.93
2022-09-17T22:16:04.809Z,8.85
2022-09-17T22:18:32.480Z,8.81
2022-09-17T22:21:01.699Z,8.87
2022-09-17T22:23:29.196Z,8.94
2022-09-17T22:26:03.439Z,9.01
2022-09-17T22:28:31.168Z,9.04
2022-09-17T22:31:02.533Z,9.07
2022-09-17T22:33:32.928Z,9.04
2022-09-17T22:36:06.507Z,9.06
2022-09-17T22:38:34.060Z,9.03
2022-09-17T22:41:06.318Z,8.93
2022-09-17T22:43:33.908Z,8.81
2022-09-17T22:46:01.758Z,8.69
2022-09-17T22:48:29.335Z,8.63
2022-09-17T22:50:56.834Z,8.52
2022-09-17T22:53:25.915Z,8.42
2022-09-17T22:55:56.830Z,8.38
2022-09-17T22:58:24.830Z,8.35
2022-09-17T23:00:53.670Z,8.30
2022-09-17T23:03:21.634Z,8.24
2022-09-17T23:05:49.188Z,8.17
2022-09-17T23:08:16.710Z,8.17
2022-09-17T23:10:45.562Z,8.14
2022-09-17T23:13:13.082Z,8.15
2022-09-17T23:15:40.791Z,8.12
2022-09-17T23:18:08.508Z,8.11
2022-09-17T23:20:36.041Z,8.09
2022-09-17T23:23:03.550Z,8.05
2022-09-17T23:25:31.119Z,8.03
2022-09-17T23:28:00.088Z,8.07
2022-09-17T23:30:28.779Z,8.03
2022-09-17T23:32:57.252Z,8.05
2022-09-17T23:35:25.667Z,8.02
2022-09-17T23:37:53.166Z,7.92
2022-09-17T23:40:21.978Z,8.00
2022-09-17T23:42:49.596Z,8.03
2022-09-17T23:45:18.824Z,8.12
2022-09-17T23:47:46.511Z,8.24
2022-09-17T23:50:14.100Z,8.37
2022-09-17T23:52:41.935Z,8.41
2022-09-17T23:55:10.110Z,8.41
2022-09-17T23:57:38.996Z,8.45
